createdAt,value
2018-01-24T00:00:33.218Z,5.30
2018-01-24T00:03:01.633Z,5.30
2018-01-24T00:05:29.230Z,5.20
2018-01-24T00:07:56.856Z,5.30
2018-01-24T00:10:24.503Z,5.20
2018-01-24T00:12:52.103Z,5.20
2018-01-24T00:15:19.987Z,5.20
2018-01-24T00:17:47.635Z,5.20
2018-01-24T00:20:16.580Z,5.20
2018-01-24T00:22:44.207Z,5.20
2018-01-24T00:25:11.832Z,5.20
2018-01-24T00:27:40.195Z,5.20
2018-01-24T00:30:07.815Z,5.20
2018-01-24T00:32:36.170Z,5.20
2018-01-24T00:35:03.794Z,5.20
2018-01-24T00:37:32.166Z,5.20
2018-01-24T00:39:59.768Z,5.20
2018-01-24T00:42:27.372Z,5.20
2018-01-24T00:44:55.756Z,5.20
2018-01-24T00:47:23.396Z,5.20
2018-01-24T00:49:51.008Z,5.20
2018-01-24T00:52:18.597Z,5.20
2018-01-24T00:54:47.269Z,5.20
2018-01-24T00:57:14.871Z,5.30
2018-01-24T00:59:42.460Z,5.30
2018-01-24T01:02:10.052Z,5.30
2018-01-24T01:04:37.689Z,5.30
2018-01-24T01:07:06.033Z,5.20
2018-01-24T01:09:34.658Z,5.20
2018-01-24T01:12:03.107Z,5.20
2018-01-24T01:14:30.687Z,5.20
2018-01-24T01:16:59.066Z,5.30
2018-01-24T01:19:26.653Z,5.20
2018-01-24T01:21:54.271Z,5.30
2018-01-24T01:24:22.651Z,5.30
2018-01-24T01:26:50.270Z,5.30
2018-01-24T01:29:18.927Z,5.30
2018-01-24T01:31:46.610Z,5.30
2018-01-24T01:34:14.226Z,5.30
2018-01-24T01:36:42.592Z,5.30
2018-01-24T01:39:10.960Z,5.40
2018-01-24T01:41:38.578Z,5.30
2018-01-24T01:44:06.976Z,5.40
2018-01-24T01:46:34.594Z,5.40
2018-01-24T01:49:02.218Z,5.40
2018-01-24T01:51:29.842Z,5.40
2018-01-24T01:53:57.496Z,5.50
2018-01-24T01:56:25.174Z,5.50
2018-01-24T01:58:52.751Z,5.50
2018-01-24T02:01:21.139Z,5.50
2018-01-24T02:03:49.523Z,5.60
2018-01-24T02:06:17.114Z,5.60
2018-01-24T02:08:44.754Z,5.70
2018-01-24T02:11:12.331Z,5.70
2018-01-24T02:13:39.955Z,5.70
2018-01-24T02:16:07.556Z,5.70
2018-01-24T02:18:35.176Z,5.70
2018-01-24T02:21:02.838Z,5.70
2018-01-24T02:23:31.279Z,5.70
2018-01-24T02:25:58.903Z,5.70
2018-01-24T02:28:26.523Z,5.70
2018-01-24T02:30:54.131Z,5.80
2018-01-24T02:33:21.767Z,5.70
2018-01-24T02:35:49.365Z,5.80
2018-01-24T02:38:29.698Z,5.80
2018-01-24T02:40:57.303Z,5.70
2018-01-24T02:43:24.923Z,5.70
2018-01-24T02:45:52.540Z,5.80
2018-01-24T02:48:20.161Z,5.80
2018-01-24T02:50:48.777Z,5.80
2018-01-24T02:53:17.454Z,5.80
2018-01-24T02:55:45.045Z,5.80
2018-01-24T02:58:12.642Z,5.80
2018-01-24T03:00:40.261Z,5.90
2018-01-24T03:03:08.612Z,5.90
2018-01-24T03:05:36.267Z,5.90
2018-01-24T03:08:04.616Z,5.90
2018-01-24T03:10:32.237Z,5.80
2018-01-24T03:12:59.833Z,5.90
2018-01-24T03:15:28.203Z,5.90
2018-01-24T03:17:55.782Z,5.90
2018-01-24T03:20:23.385Z,6.00
2018-01-24T03:22:51.007Z,6.00
2018-01-24T03:25:18.624Z,6.20
2018-01-24T03:27:47.276Z,6.20
2018-01-24T03:30:15.675Z,6.20
2018-01-24T03:32:44.055Z,6.30
2018-01-24T03:35:11.664Z,6.20
2018-01-24T03:37:39.253Z,6.30
2018-01-24T03:40:07.644Z,6.30
2018-01-24T03:42:35.242Z,6.30
2018-01-24T03:45:03.602Z,6.30
2018-01-24T03:47:31.198Z,6.30
2018-01-24T03:49:58.801Z,6.30
2018-01-24T03:52:26.407Z,6.30
2018-01-24T03:54:54.774Z,6.40
2018-01-24T03:57:22.429Z,6.30
2018-01-24T03:59:50.041Z,6.40
2018-01-24T04:02:18.532Z,6.40
2018-01-24T04:04:46.601Z,6.40
2018-01-24T04:07:14.212Z,6.50
2018-01-24T04:09:41.801Z,6.50
2018-01-24T04:12:09.424Z,6.50
2018-01-24T04:14:37.020Z,6.50
2018-01-24T04:17:05.421Z,6.50
2018-01-24T04:19:33.800Z,6.60
2018-01-24T04:22:01.382Z,6.60
2018-01-24T04:24:30.484Z,6.50
2018-01-24T04:26:58.067Z,6.50
2018-01-24T04:29:25.660Z,6.60
2018-01-24T04:31:53.257Z,6.60
2018-01-24T04:34:20.871Z,6.60
2018-01-24T04:36:49.219Z,6.70
2018-01-24T04:39:17.819Z,6.60
2018-01-24T04:41:45.410Z,6.60
2018-01-24T04:44:12.998Z,6.60
2018-01-24T04:46:40.614Z,6.60
2018-01-24T04:49:08.230Z,6.60
2018-01-24T04:51:36.595Z,6.60
2018-01-24T04:54:04.291Z,6.60
2018-01-24T04:56:31.851Z,6.70
2018-01-24T04:58:59.422Z,6.70
2018-01-24T05:01:27.031Z,6.60
2018-01-24T05:03:54.598Z,6.60
2018-01-24T05:06:22.221Z,6.60
2018-01-24T05:08:49.829Z,6.70
2018-01-24T05:11:18.193Z,6.60
2018-01-24T05:13:45.779Z,6.60
2018-01-24T05:16:13.374Z,6.70
2018-01-24T05:18:40.996Z,6.70
2018-01-24T05:21:08.603Z,6.70
2018-01-24T05:23:36.207Z,6.70
2018-01-24T05:26:03.809Z,6.60
2018-01-24T05:28:31.405Z,6.60
2018-01-24T05:30:59.005Z,6.70
2018-01-24T05:33:27.350Z,6.70
2018-01-24T05:35:54.949Z,6.70
2018-01-24T05:38:22.533Z,6.70
2018-01-24T05:40:50.113Z,6.70
2018-01-24T05:43:18.461Z,6.80
2018-01-24T05:45:47.985Z,6.80
2018-01-24T05:48:16.359Z,6.90
2018-01-24T05:50:43.962Z,6.90
2018-01-24T05:53:11.578Z,7.10
2018-01-24T05:55:39.171Z,7.10
2018-01-24T05:58:06.781Z,7.20
2018-01-24T06:00:34.344Z,7.30
2018-01-24T06:03:01.962Z,7.30
2018-01-24T06:05:29.553Z,7.30
2018-01-24T06:07:57.162Z,7.40
2018-01-24T06:10:24.760Z,7.50
2018-01-24T06:12:53.194Z,7.50
2018-01-24T06:15:21.375Z,7.50
2018-01-24T06:17:49.047Z,7.60
2018-01-24T06:20:16.649Z,7.60
2018-01-24T06:22:44.269Z,7.70
2018-01-24T06:25:11.869Z,7.80
2018-01-24T06:27:39.478Z,7.80
2018-01-24T06:30:07.826Z,8.00
2018-01-24T06:32:35.465Z,8.00
2018-01-24T06:35:03.822Z,8.20
2018-01-24T06:37:31.439Z,8.10
2018-01-24T06:39:59.012Z,8.10
2018-01-24T06:42:26.605Z,8.10
2018-01-24T06:44:54.194Z,8.10
2018-01-24T06:47:21.822Z,8.10
2018-01-24T06:49:49.429Z,8.10
2018-01-24T06:52:17.087Z,8.10
2018-01-24T06:54:44.667Z,8.20
2018-01-24T06:57:12.253Z,8.20
2018-01-24T06:59:39.845Z,8.30
2018-01-24T07:02:07.467Z,8.30
2018-01-24T07:04:35.056Z,8.20
2018-01-24T07:07:02.719Z,8.30
2018-01-24T07:09:30.319Z,8.20
2018-01-24T07:12:09.879Z,8.20
2018-01-24T07:14:44.218Z,8.20
2018-01-24T07:17:11.823Z,8.20
2018-01-24T07:19:39.411Z,8.20
2018-01-24T07:22:07.006Z,8.20
2018-01-24T07:24:34.630Z,8.20
2018-01-24T07:27:02.222Z,8.20
2018-01-24T07:29:29.824Z,8.20
2018-01-24T07:31:57.422Z,8.30
2018-01-24T07:34:25.064Z,8.20
2018-01-24T07:36:52.697Z,8.20
2018-01-24T07:39:20.314Z,8.20
2018-01-24T07:41:48.640Z,8.20
2018-01-24T07:44:16.261Z,8.20
2018-01-24T07:46:43.858Z,8.20
2018-01-24T07:49:11.497Z,8.20
2018-01-24T07:51:39.100Z,8.30
2018-01-24T07:54:06.719Z,8.20
2018-01-24T07:56:34.309Z,8.20
2018-01-24T07:59:02.023Z,8.30
2018-01-24T08:01:30.394Z,8.30
2018-01-24T08:03:58.009Z,8.30
2018-01-24T08:06:26.377Z,8.40
2018-01-24T08:08:54.006Z,8.40
2018-01-24T08:11:22.361Z,8.30
2018-01-24T08:13:50.004Z,8.20
2018-01-24T08:16:17.591Z,8.30
2018-01-24T08:18:45.178Z,8.30
2018-01-24T08:21:12.754Z,8.30
2018-01-24T08:23:40.376Z,8.40
2018-01-24T08:26:07.963Z,8.40
2018-01-24T08:28:35.561Z,8.40
2018-01-24T08:31:03.202Z,8.40
2018-01-24T08:33:30.797Z,8.40
2018-01-24T08:35:58.428Z,8.40
2018-01-24T08:38:26.023Z,8.50
2018-01-24T08:40:53.633Z,8.50
2018-01-24T08:43:21.221Z,8.70
2018-01-24T08:45:48.826Z,8.70
2018-01-24T08:48:17.419Z,8.80
2018-01-24T08:50:45.032Z,8.80
2018-01-24T08:53:12.665Z,8.80
2018-01-24T08:55:41.058Z,8.90
2018-01-24T08:58:09.398Z,9.00
2018-01-24T09:00:54.823Z,9.00
2018-01-24T09:03:40.016Z,9.00
2018-01-24T09:06:25.455Z,9.10
2018-01-24T09:09:10.524Z,9.20
2018-01-24T09:11:55.769Z,9.20
2018-01-24T09:14:41.873Z,9.20
2018-01-24T09:17:27.022Z,9.20
2018-01-24T09:20:12.323Z,9.20
2018-01-24T09:25:42.589Z,9.30
2018-01-24T09:28:10.959Z,9.40
2018-01-24T09:30:38.573Z,9.40
2018-01-24T09:33:06.944Z,9.60
2018-01-24T09:35:34.634Z,9.60
2018-01-24T09:38:02.272Z,9.70
2018-01-24T09:40:31.113Z,9.80
2018-01-24T09:42:58.779Z,9.80
2018-01-24T09:45:26.355Z,9.80
2018-01-24T09:47:54.788Z,9.90
2018-01-24T09:50:22.400Z,9.90
2018-01-24T09:52:49.963Z,9.90
2018-01-24T09:55:18.607Z,10.00
2018-01-24T09:57:46.951Z,10.00
2018-01-24T10:00:14.565Z,10.00
2018-01-24T10:02:42.157Z,10.00
2018-01-24T10:05:09.778Z,10.10
2018-01-24T10:07:38.134Z,10.20
2018-01-24T10:10:05.739Z,10.10
2018-01-24T10:12:33.311Z,10.20
2018-01-24T10:15:00.980Z,10.20
2018-01-24T10:17:28.610Z,10.30
2018-01-24T10:19:56.274Z,10.30
2018-01-24T10:22:23.867Z,10.30
2018-01-24T10:24:51.500Z,10.40
2018-01-24T10:27:19.091Z,10.30
2018-01-24T10:29:46.765Z,10.40
2018-01-24T10:32:14.381Z,10.40
2018-01-24T10:34:42.011Z,10.50
2018-01-24T10:37:10.355Z,10.50
2018-01-24T10:39:37.984Z,10.50
2018-01-24T10:42:05.635Z,10.40
2018-01-24T10:44:33.247Z,10.40
2018-01-24T10:47:00.844Z,10.30
2018-01-24T10:49:28.469Z,10.30
2018-01-24T10:51:56.122Z,10.30
2018-01-24T10:54:23.862Z,10.40
2018-01-24T10:56:51.455Z,10.40
2018-01-24T10:59:19.065Z,10.40
2018-01-24T11:01:46.659Z,10.40
2018-01-24T11:04:14.286Z,10.40
2018-01-24T11:06:41.898Z,10.40
2018-01-24T11:09:09.508Z,10.40
2018-01-24T11:11:37.906Z,10.40
2018-01-24T11:14:06.027Z,10.40
2018-01-24T11:16:34.420Z,10.40
2018-01-24T11:19:01.994Z,10.30
2018-01-24T11:21:29.604Z,10.40
2018-01-24T11:23:57.202Z,10.40
2018-01-24T11:26:25.635Z,10.40
2018-01-24T11:28:53.217Z,10.40
2018-01-24T11:31:20.832Z,10.40
2018-01-24T11:33:48.436Z,10.40
2018-01-24T11:36:16.050Z,10.40
2018-01-24T11:38:43.644Z,10.40
2018-01-24T11:41:11.271Z,10.40
2018-01-24T11:43:38.868Z,10.40
2018-01-24T11:46:06.482Z,10.50
2018-01-24T11:48:34.058Z,10.50
2018-01-24T11:51:02.434Z,10.60
2018-01-24T11:53:30.028Z,10.60
2018-01-24T11:55:57.637Z,10.60
2018-01-24T11:58:25.981Z,10.60
2018-01-24T12:00:53.625Z,10.60
2018-01-24T12:03:22.000Z,10.70
2018-01-24T12:05:49.610Z,10.60
2018-01-24T12:08:19.035Z,10.70
2018-01-24T12:10:46.669Z,10.70
2018-01-24T12:13:14.244Z,10.70
2018-01-24T12:15:41.834Z,10.70
2018-01-24T12:18:09.432Z,10.70
2018-01-24T12:20:37.001Z,10.70
2018-01-24T12:23:05.684Z,10.70
2018-01-24T12:25:33.276Z,10.70
2018-01-24T12:28:00.892Z,10.70
2018-01-24T12:30:28.478Z,10.70
2018-01-24T12:32:56.128Z,10.70
2018-01-24T12:35:23.722Z,10.70
2018-01-24T12:37:51.365Z,10.70
2018-01-24T12:40:18.966Z,10.80
2018-01-24T12:42:47.362Z,10.80
2018-01-24T12:45:16.512Z,10.80
2018-01-24T12:47:44.142Z,10.80
2018-01-24T12:50:11.717Z,10.80
2018-01-24T12:52:39.320Z,10.90
2018-01-24T12:55:06.905Z,10.90
2018-01-24T12:57:34.555Z,10.90
2018-01-24T13:00:02.164Z,10.90
2018-01-24T13:02:29.762Z,10.90
2018-01-24T13:04:57.346Z,10.90
2018-01-24T13:07:24.967Z,10.90
2018-01-24T13:09:52.561Z,10.90
2018-01-24T13:12:20.161Z,10.90
2018-01-24T13:14:48.423Z,10.90
2018-01-24T13:17:18.090Z,10.80
2018-01-24T13:19:45.674Z,10.80
2018-01-24T13:22:13.269Z,10.80
2018-01-24T13:24:40.850Z,10.80
2018-01-24T13:27:08.459Z,10.80
2018-01-24T13:29:36.062Z,10.70
2018-01-24T13:32:03.701Z,10.70
2018-01-24T13:34:31.297Z,10.70
2018-01-24T13:36:58.966Z,10.70
2018-01-24T13:39:26.556Z,10.70
2018-01-24T13:41:54.159Z,10.70
2018-01-24T13:44:21.785Z,10.70
2018-01-24T13:46:50.153Z,10.70
2018-01-24T13:49:19.102Z,10.60
2018-01-24T13:51:47.435Z,10.70
2018-01-24T13:54:15.037Z,10.70
2018-01-24T13:56:42.656Z,10.60
2018-01-24T13:59:10.277Z,10.70
2018-01-24T14:01:37.923Z,10.70
2018-01-24T14:04:05.542Z,10.60
2018-01-24T14:06:33.948Z,10.60
2018-01-24T14:09:01.639Z,10.60
2018-01-24T14:11:29.281Z,10.60
2018-01-24T14:13:56.962Z,10.60
2018-01-24T14:16:24.620Z,10.60
2018-01-24T14:18:52.272Z,10.60
2018-01-24T14:21:20.635Z,10.60
2018-01-24T14:23:48.227Z,10.60
2018-01-24T14:26:16.147Z,10.60
2018-01-24T14:28:43.804Z,10.60
2018-01-24T14:31:11.408Z,10.60
2018-01-24T14:33:39.036Z,10.70
2018-01-24T14:36:06.626Z,10.70
2018-01-24T14:38:34.240Z,10.70
2018-01-24T14:41:03.521Z,10.70
2018-01-24T14:43:31.117Z,10.70
2018-01-24T14:45:58.689Z,10.70
2018-01-24T14:48:26.279Z,10.70
2018-01-24T14:50:53.887Z,10.70
2018-01-24T14:53:21.457Z,10.70
2018-01-24T14:55:49.087Z,10.70
2018-01-24T14:58:17.642Z,10.70
2018-01-24T15:00:45.254Z,10.70
2018-01-24T15:03:12.866Z,10.60
2018-01-24T15:05:40.469Z,10.60
2018-01-24T15:08:08.882Z,10.60
2018-01-24T15:10:43.035Z,10.60
2018-01-24T15:13:10.626Z,10.50
2018-01-24T15:15:38.228Z,10.60
2018-01-24T15:18:05.853Z,10.60
2018-01-24T15:20:34.249Z,10.50
2018-01-24T15:23:02.620Z,10.50
2018-01-24T15:25:30.231Z,10.50
2018-01-24T15:27:57.799Z,10.50
2018-01-24T15:30:25.414Z,10.50
2018-01-24T15:32:52.998Z,10.40
2018-01-24T15:35:20.629Z,10.50
2018-01-24T15:37:48.207Z,10.50
2018-01-24T15:40:15.840Z,10.40
2018-01-24T15:42:43.445Z,10.40
2018-01-24T15:45:11.812Z,10.40
2018-01-24T15:47:39.389Z,10.40
2018-01-24T15:50:07.011Z,10.40
2018-01-24T15:52:34.601Z,10.40
2018-01-24T15:55:02.187Z,10.30
2018-01-24T15:57:29.768Z,10.20
2018-01-24T15:59:57.443Z,10.10
2018-01-24T16:02:25.021Z,10.10
2018-01-24T16:04:52.608Z,10.10
2018-01-24T16:07:20.211Z,10.20
2018-01-24T16:09:48.567Z,10.10
2018-01-24T16:12:17.315Z,10.00
2018-01-24T16:14:44.899Z,10.00
2018-01-24T16:17:12.523Z,10.00
2018-01-24T16:19:40.106Z,10.00
2018-01-24T16:22:07.751Z,10.00
2018-01-24T16:24:35.352Z,10.00
2018-01-24T16:27:03.727Z,9.90
2018-01-24T16:29:31.359Z,9.90
2018-01-24T16:31:58.982Z,9.90
2018-01-24T16:34:26.556Z,9.90
2018-01-24T16:36:54.151Z,9.80
2018-01-24T16:39:21.738Z,9.80
2018-01-24T16:41:49.327Z,9.80
2018-01-24T16:44:17.374Z,9.80
2018-01-24T16:46:45.001Z,9.90
2018-01-24T16:49:12.604Z,9.70
2018-01-24T16:51:40.197Z,9.80
2018-01-24T16:54:07.776Z,9.80
2018-01-24T16:56:35.393Z,9.70
2018-01-24T16:59:03.738Z,9.60
2018-01-24T17:01:31.354Z,9.60
2018-01-24T17:03:58.943Z,9.60
2018-01-24T17:06:26.567Z,9.60
2018-01-24T17:08:54.162Z,9.50
2018-01-24T17:11:21.761Z,9.50
2018-01-24T17:13:49.358Z,9.40
2018-01-24T17:16:18.174Z,9.50
2018-01-24T17:18:46.439Z,9.50
2018-01-24T17:21:14.019Z,9.40
2018-01-24T17:23:41.619Z,9.40
2018-01-24T17:26:09.188Z,9.40
2018-01-24T17:28:36.798Z,9.40
2018-01-24T17:31:04.396Z,9.40
2018-01-24T17:33:32.932Z,9.40
2018-01-24T17:36:00.532Z,9.30
2018-01-24T17:38:28.948Z,9.30
2018-01-24T17:40:56.551Z,9.30
2018-01-24T17:43:24.162Z,9.30
2018-01-24T17:45:51.746Z,9.30
2018-01-24T17:48:19.361Z,9.20
2018-01-24T17:50:47.387Z,9.20
2018-01-24T17:53:14.997Z,9.10
2018-01-24T17:55:42.578Z,9.10
2018-01-24T17:58:10.212Z,9.20
2018-01-24T18:00:37.799Z,9.10
2018-01-24T18:03:06.177Z,9.10
2018-01-24T18:05:33.777Z,9.10
2018-01-24T18:08:01.384Z,9.10
2018-01-24T18:10:29.727Z,9.20
2018-01-24T18:12:57.335Z,9.10
2018-01-24T18:15:24.929Z,9.30
2018-01-24T18:17:54.081Z,9.10
2018-01-24T18:20:22.450Z,9.00
2018-01-24T18:22:50.065Z,9.00
2018-01-24T18:25:18.408Z,9.00
2018-01-24T18:27:46.015Z,9.00
2018-01-24T18:30:13.612Z,9.00
2018-01-24T18:32:41.222Z,9.00
2018-01-24T18:35:08.839Z,9.00
2018-01-24T18:37:36.431Z,9.00
2018-01-24T18:40:04.037Z,9.00
2018-01-24T18:42:31.632Z,9.10
2018-01-24T18:44:59.234Z,9.10
2018-01-24T18:47:27.585Z,9.10
2018-01-24T18:49:55.197Z,9.00
2018-01-24T18:52:22.795Z,9.00
2018-01-24T18:54:50.441Z,9.10
2018-01-24T18:57:18.938Z,9.00
2018-01-24T18:59:46.563Z,9.10
2018-01-24T19:02:14.134Z,9.00
2018-01-24T19:04:41.748Z,9.00
2018-01-24T19:07:09.318Z,9.10
2018-01-24T19:09:36.917Z,9.00
2018-01-24T19:12:04.480Z,9.00
2018-01-24T19:14:32.087Z,9.10
2018-01-24T19:16:59.661Z,9.10
2018-01-24T19:19:27.267Z,9.00
2018-01-24T19:21:55.677Z,9.00
2018-01-24T19:24:24.050Z,9.00
2018-01-24T19:26:51.780Z,9.00
2018-01-24T19:29:20.147Z,9.20
2018-01-24T19:31:48.887Z,9.10
2018-01-24T19:34:17.255Z,9.10
2018-01-24T19:36:44.814Z,9.10
2018-01-24T19:39:12.410Z,9.20
2018-01-24T19:41:39.974Z,9.20
2018-01-24T19:44:07.589Z,9.10
2018-01-24T19:46:35.151Z,9.10
2018-01-24T19:49:02.762Z,9.10
2018-01-24T19:51:30.346Z,9.10
2018-01-24T19:53:57.970Z,9.10
2018-01-24T19:56:25.555Z,9.10
2018-01-24T19:58:53.920Z,9.10
2018-01-24T20:01:21.535Z,9.00
2018-01-24T20:03:49.871Z,9.10
2018-01-24T20:06:17.707Z,9.10
2018-01-24T20:08:45.297Z,9.10
2018-01-24T20:11:13.658Z,9.10
2018-01-24T20:13:41.233Z,9.10
2018-01-24T20:16:08.840Z,9.10
2018-01-24T20:18:36.399Z,9.00
2018-01-24T20:21:04.002Z,9.00
2018-01-24T20:23:31.571Z,9.00
2018-01-24T20:25:59.155Z,9.00
2018-01-24T20:28:26.725Z,9.00
2018-01-24T20:30:54.329Z,9.00
2018-01-24T20:33:21.906Z,9.10
2018-01-24T20:35:49.491Z,9.10
2018-01-24T20:38:17.065Z,9.10
2018-01-24T20:40:44.642Z,9.10
2018-01-24T20:43:12.244Z,9.00
2018-01-24T20:45:39.807Z,9.10
2018-01-24T20:48:07.401Z,9.00
2018-01-24T20:50:34.980Z,9.10
2018-01-24T20:53:02.575Z,9.10
2018-01-24T20:55:30.140Z,9.00
2018-01-24T20:57:57.749Z,9.00
2018-01-24T21:00:25.333Z,9.00
2018-01-24T21:02:52.928Z,9.10
2018-01-24T21:05:20.842Z,9.00
2018-01-24T21:07:48.457Z,9.00
2018-01-24T21:10:17.811Z,9.00
2018-01-24T21:12:45.427Z,8.90
2018-01-24T21:15:12.998Z,9.00
2018-01-24T21:17:40.598Z,9.00
2018-01-24T21:20:08.189Z,9.00
2018-01-24T21:22:35.812Z,9.00
2018-01-24T21:25:04.144Z,9.00
2018-01-24T21:27:31.734Z,9.00
2018-01-24T21:30:11.244Z,9.10
2018-01-24T21:32:50.645Z,9.00
2018-01-24T21:35:30.140Z,9.00
2018-01-24T21:37:57.722Z,9.00
2018-01-24T21:40:25.275Z,9.00
2018-01-24T21:42:53.642Z,8.90
2018-01-24T21:45:21.786Z,9.00
2018-01-24T21:47:49.430Z,8.90
2018-01-24T21:50:17.063Z,9.00
2018-01-24T21:52:44.637Z,9.00
2018-01-24T21:55:12.223Z,9.10
2018-01-24T21:57:39.808Z,9.00
2018-01-24T22:00:07.423Z,9.00
2018-01-24T22:02:35.015Z,9.10
2018-01-24T22:05:02.651Z,9.10
2018-01-24T22:07:30.243Z,9.00
2018-01-24T22:09:57.848Z,9.00
2018-01-24T22:12:25.431Z,9.00
2018-01-24T22:14:53.049Z,9.00
2018-01-24T22:17:20.612Z,9.00
2018-01-24T22:22:21.279Z,9.00
2018-01-24T22:24:48.923Z,9.00
2018-01-24T22:27:16.681Z,9.00
2018-01-24T22:29:44.415Z,9.00
2018-01-24T22:32:12.035Z,8.90
2018-01-24T22:34:39.678Z,8.90
2018-01-24T22:37:07.296Z,9.00
2018-01-24T22:39:34.950Z,9.00
2018-01-24T22:42:02.552Z,9.00
2018-01-24T22:44:30.958Z,9.00
2018-01-24T22:46:59.355Z,9.00
2018-01-24T22:49:27.777Z,8.90
2018-01-24T22:51:56.182Z,8.90
2018-01-24T22:54:23.753Z,8.90
2018-01-24T22:56:52.126Z,8.90
2018-01-24T22:59:19.708Z,8.90
2018-01-24T23:01:47.299Z,9.00
2018-01-24T23:04:14.889Z,8.80
2018-01-24T23:06:42.479Z,8.80
2018-01-24T23:09:10.067Z,8.90
2018-01-24T23:11:38.433Z,8.90
2018-01-24T23:14:06.033Z,8.90
2018-01-24T23:16:33.663Z,8.80
2018-01-24T23:19:01.272Z,8.90
2018-01-24T23:21:28.900Z,8.90
2018-01-24T23:23:56.520Z,8.90
2018-01-24T23:26:24.167Z,8.90
2018-01-24T23:28:51.786Z,8.80
2018-01-24T23:31:19.406Z,9.00
2018-01-24T23:33:47.014Z,9.00
2018-01-24T23:36:14.744Z,8.90
2018-01-24T23:38:42.354Z,8.90
2018-01-24T23:41:09.972Z,8.80
2018-01-24T23:43:37.652Z,8.80
2018-01-24T23:46:05.287Z,8.90
2018-01-24T23:48:32.892Z,8.80
2018-01-24T23:51:00.523Z,8.80
2018-01-24T23:53:28.167Z,8.80
2018-01-24T23:55:55.809Z,8.80
2018-01-24T23:58:23.435Z,8.80
